Aviation Digital Data Service (ADDS)

Output produced by METARs form (2151 UTC 23 April 2019)
found at http://www.aviationweather.gov/metar/data/
 
TAF LFRN 231700Z 2318/2418 11005KT 9999 BKN040 
     TEMPO 2318/2321 4000 SHRA BKN050CB 
     PROB40 
     TEMPO 2318/2321 VRB15G30KT 3000 TSRAGR 
     PROB40 
     TEMPO 2321/2403 5000 RA BKN010 
     BECMG 2401/2403 5000 RA BKN015 
     TEMPO 2403/2408 3000 RA BKN008 BKN015TCU 
     BECMG 2404/2406 25010KT 
     BECMG 2407/2409 9999 NSW BKN020 
     TEMPO 2409/2418 4000 SHRA BKN020TCU 
     BECMG 2410/2412 20010KT 
     PROB40 
     TEMPO 2412/2418 18015G30KT 3000 TSRAGR BKN020CB 
     BECMG 2413/2415 18015G25KT